sensor_id;sensor_type;location;lat;lon;timestamp;P1;durP1;ratioP1;P2;durP2;ratioP2
46266;SDS011;31998;48.798;15.066;2023-12-28T00:01:03;5.37;;;4.40;;
46266;SDS011;31998;48.798;15.066;2023-12-28T00:03:28;4.30;;;4.00;;
46266;SDS011;31998;48.798;15.066;2023-12-28T00:05:54;4.20;;;3.90;;
46266;SDS011;31998;48.798;15.066;2023-12-28T00:08:19;7.40;;;4.10;;
46266;SDS011;31998;48.798;15.066;2023-12-28T00:10:44;4.73;;;4.33;;
46266;SDS011;31998;48.798;15.066;2023-12-28T00:13:11;4.27;;;4.07;;
46266;SDS011;31998;48.798;15.066;2023-12-28T00:15:36;4.97;;;4.10;;
46266;SDS011;31998;48.798;15.066;2023-12-28T00:18:01;5.27;;;4.43;;
46266;SDS011;31998;48.798;15.066;2023-12-28T00:20:27;4.83;;;4.50;;
46266;SDS011;31998;48.798;15.066;2023-12-28T00:22:52;6.73;;;4.63;;
46266;SDS011;31998;48.798;15.066;2023-12-28T00:25:17;8.63;;;5.50;;
46266;SDS011;31998;48.798;15.066;2023-12-28T00:27:43;4.97;;;4.00;;
46266;SDS011;31998;48.798;15.066;2023-12-28T00:30:10;4.37;;;4.10;;
46266;SDS011;31998;48.798;15.066;2023-12-28T00:32:35;3.70;;;3.40;;
46266;SDS011;31998;48.798;15.066;2023-12-28T00:35:01;3.77;;;3.53;;
46266;SDS011;31998;48.798;15.066;2023-12-28T00:37:26;5.30;;;3.30;;
46266;SDS011;31998;48.798;15.066;2023-12-28T00:39:51;3.20;;;3.00;;
46266;SDS011;31998;48.798;15.066;2023-12-28T00:42:17;3.00;;;2.90;;
46266;SDS011;31998;48.798;15.066;2023-12-28T00:44:43;3.80;;;3.50;;
46266;SDS011;31998;48.798;15.066;2023-12-28T00:47:08;4.30;;;2.70;;
46266;SDS011;31998;48.798;15.066;2023-12-28T00:49:33;2.80;;;2.60;;
46266;SDS011;31998;48.798;15.066;2023-12-28T00:51:58;3.40;;;3.00;;
46266;SDS011;31998;48.798;15.066;2023-12-28T00:54:23;3.30;;;3.10;;
46266;SDS011;31998;48.798;15.066;2023-12-28T00:56:49;5.90;;;3.30;;
46266;SDS011;31998;48.798;15.066;2023-12-28T00:59:14;5.50;;;3.70;;
46266;SDS011;31998;48.798;15.066;2023-12-28T01:01:39;2.97;;;2.77;;
46266;SDS011;31998;48.798;15.066;2023-12-28T01:04:04;6.07;;;4.00;;
46266;SDS011;31998;48.798;15.066;2023-12-28T01:06:29;4.53;;;3.10;;
46266;SDS011;31998;48.798;15.066;2023-12-28T01:08:55;4.90;;;3.10;;
46266;SDS011;31998;48.798;15.066;2023-12-28T01:11:20;2.90;;;2.70;;
46266;SDS011;31998;48.798;15.066;2023-12-28T01:13:45;3.10;;;2.77;;
46266;SDS011;31998;48.798;15.066;2023-12-28T01:16:14;3.37;;;3.17;;
46266;SDS011;31998;48.798;15.066;2023-12-28T01:18:39;9.90;;;3.60;;
46266;SDS011;31998;48.798;15.066;2023-12-28T01:21:05;6.57;;;3.70;;
46266;SDS011;31998;48.798;15.066;2023-12-28T01:23:30;5.93;;;3.67;;
46266;SDS011;31998;48.798;15.066;2023-12-28T01:25:56;3.17;;;2.97;;
46266;SDS011;31998;48.798;15.066;2023-12-28T01:28:21;4.47;;;2.93;;
46266;SDS011;31998;48.798;15.066;2023-12-28T01:30:46;4.63;;;3.03;;
46266;SDS011;31998;48.798;15.066;2023-12-28T01:33:12;2.57;;;2.47;;
46266;SDS011;31998;48.798;15.066;2023-12-28T01:35:37;3.10;;;2.90;;
46266;SDS011;31998;48.798;15.066;2023-12-28T01:38:02;2.97;;;2.77;;
46266;SDS011;31998;48.798;15.066;2023-12-28T01:40:28;3.53;;;3.23;;
46266;SDS011;31998;48.798;15.066;2023-12-28T01:42:53;6.90;;;4.07;;
46266;SDS011;31998;48.798;15.066;2023-12-28T01:45:19;6.03;;;5.50;;
46266;SDS011;31998;48.798;15.066;2023-12-28T01:47:44;10.47;;;7.60;;
46266;SDS011;31998;48.798;15.066;2023-12-28T01:50:09;10.73;;;6.20;;
46266;SDS011;31998;48.798;15.066;2023-12-28T01:52:34;10.43;;;5.10;;
46266;SDS011;31998;48.798;15.066;2023-12-28T01:55:00;7.20;;;2.67;;
46266;SDS011;31998;48.798;15.066;2023-12-28T01:57:25;6.03;;;2.90;;
46266;SDS011;31998;48.798;15.066;2023-12-28T01:59:51;8.50;;;2.60;;
46266;SDS011;31998;48.798;15.066;2023-12-28T02:02:17;3.27;;;3.03;;
46266;SDS011;31998;48.798;15.066;2023-12-28T02:04:42;3.30;;;2.80;;
46266;SDS011;31998;48.798;15.066;2023-12-28T02:07:08;5.37;;;4.00;;
46266;SDS011;31998;48.798;15.066;2023-12-28T02:09:33;3.60;;;3.40;;
46266;SDS011;31998;48.798;15.066;2023-12-28T02:11:58;3.70;;;3.40;;
46266;SDS011;31998;48.798;15.066;2023-12-28T02:14:24;9.43;;;4.17;;
46266;SDS011;31998;48.798;15.066;2023-12-28T02:17:11;2.97;;;2.87;;
46266;SDS011;31998;48.798;15.066;2023-12-28T02:19:39;3.13;;;2.93;;
46266;SDS011;31998;48.798;15.066;2023-12-28T02:22:05;9.10;;;3.73;;
46266;SDS011;31998;48.798;15.066;2023-12-28T02:24:30;4.23;;;3.83;;
46266;SDS011;31998;48.798;15.066;2023-12-28T02:26:55;3.37;;;3.17;;
46266;SDS011;31998;48.798;15.066;2023-12-28T02:29:21;3.13;;;3.03;;
46266;SDS011;31998;48.798;15.066;2023-12-28T02:31:46;3.60;;;3.30;;
46266;SDS011;31998;48.798;15.066;2023-12-28T02:34:22;4.33;;;3.57;;
46266;SDS011;31998;48.798;15.066;2023-12-28T02:36:51;3.43;;;3.20;;
46266;SDS011;31998;48.798;15.066;2023-12-28T02:39:16;7.47;;;4.07;;
46266;SDS011;31998;48.798;15.066;2023-12-28T02:41:42;8.83;;;3.40;;
46266;SDS011;31998;48.798;15.066;2023-12-28T02:44:08;4.93;;;3.30;;
46266;SDS011;31998;48.798;15.066;2023-12-28T02:46:34;3.37;;;3.17;;
46266;SDS011;31998;48.798;15.066;2023-12-28T02:48:59;2.43;;;2.23;;
46266;SDS011;31998;48.798;15.066;2023-12-28T02:51:24;7.30;;;3.50;;
46266;SDS011;31998;48.798;15.066;2023-12-28T02:53:49;5.40;;;4.27;;
46266;SDS011;31998;48.798;15.066;2023-12-28T02:56:15;7.73;;;5.73;;
46266;SDS011;31998;48.798;15.066;2023-12-28T02:58:40;9.37;;;5.70;;
46266;SDS011;31998;48.798;15.066;2023-12-28T03:01:05;13.13;;;5.83;;
46266;SDS011;31998;48.798;15.066;2023-12-28T03:03:30;8.00;;;5.50;;
46266;SDS011;31998;48.798;15.066;2023-12-28T03:05:55;4.47;;;4.07;;
46266;SDS011;31998;48.798;15.066;2023-12-28T03:08:21;7.80;;;5.10;;
46266;SDS011;31998;48.798;15.066;2023-12-28T03:10:46;7.50;;;5.07;;
46266;SDS011;31998;48.798;15.066;2023-12-28T03:13:11;4.70;;;4.33;;
46266;SDS011;31998;48.798;15.066;2023-12-28T03:15:36;7.93;;;5.43;;
46266;SDS011;31998;48.798;15.066;2023-12-28T03:18:02;9.17;;;5.37;;
46266;SDS011;31998;48.798;15.066;2023-12-28T03:20:27;5.20;;;4.30;;
46266;SDS011;31998;48.798;15.066;2023-12-28T03:22:52;5.20;;;4.60;;
46266;SDS011;31998;48.798;15.066;2023-12-28T03:25:17;4.97;;;4.60;;
46266;SDS011;31998;48.798;15.066;2023-12-28T03:27:43;6.57;;;4.30;;
46266;SDS011;31998;48.798;15.066;2023-12-28T03:30:08;2.90;;;2.70;;
46266;SDS011;31998;48.798;15.066;2023-12-28T03:32:33;3.30;;;3.10;;
46266;SDS011;31998;48.798;15.066;2023-12-28T03:34:59;3.83;;;3.50;;
46266;SDS011;31998;48.798;15.066;2023-12-28T03:37:24;3.80;;;3.50;;
46266;SDS011;31998;48.798;15.066;2023-12-28T03:39:49;4.73;;;3.80;;
46266;SDS011;31998;48.798;15.066;2023-12-28T03:42:14;3.97;;;3.67;;
46266;SDS011;31998;48.798;15.066;2023-12-28T03:44:40;3.97;;;3.40;;
46266;SDS011;31998;48.798;15.066;2023-12-28T03:47:05;3.17;;;2.83;;
46266;SDS011;31998;48.798;15.066;2023-12-28T03:49:30;4.97;;;3.00;;
46266;SDS011;31998;48.798;15.066;2023-12-28T03:51:55;4.30;;;2.63;;
46266;SDS011;31998;48.798;15.066;2023-12-28T03:54:20;4.47;;;2.77;;
46266;SDS011;31998;48.798;15.066;2023-12-28T03:56:46;5.97;;;2.30;;
46266;SDS011;31998;48.798;15.066;2023-12-28T03:59:11;2.83;;;2.43;;
46266;SDS011;31998;48.798;15.066;2023-12-28T04:01:37;2.30;;;2.20;;
46266;SDS011;31998;48.798;15.066;2023-12-28T04:04:02;3.63;;;2.60;;
46266;SDS011;31998;48.798;15.066;2023-12-28T04:06:27;2.63;;;2.43;;
46266;SDS011;31998;48.798;15.066;2023-12-28T04:08:52;2.53;;;2.33;;
46266;SDS011;31998;48.798;15.066;2023-12-28T04:11:18;3.47;;;2.37;;
46266;SDS011;31998;48.798;15.066;2023-12-28T04:13:43;2.73;;;2.57;;
46266;SDS011;31998;48.798;15.066;2023-12-28T04:16:11;5.70;;;2.83;;
46266;SDS011;31998;48.798;15.066;2023-12-28T04:18:37;3.60;;;3.40;;
46266;SDS011;31998;48.798;15.066;2023-12-28T04:21:02;5.47;;;3.50;;
46266;SDS011;31998;48.798;15.066;2023-12-28T04:23:27;3.20;;;3.00;;
46266;SDS011;31998;48.798;15.066;2023-12-28T04:25:52;8.00;;;3.20;;
46266;SDS011;31998;48.798;15.066;2023-12-28T04:28:18;8.80;;;3.30;;
46266;SDS011;31998;48.798;15.066;2023-12-28T04:30:43;6.93;;;2.53;;
46266;SDS011;31998;48.798;15.066;2023-12-28T04:33:08;4.90;;;3.47;;
46266;SDS011;31998;48.798;15.066;2023-12-28T04:35:33;3.37;;;3.27;;
46266;SDS011;31998;48.798;15.066;2023-12-28T04:37:58;3.33;;;3.07;;
46266;SDS011;31998;48.798;15.066;2023-12-28T04:40:24;3.63;;;3.33;;
46266;SDS011;31998;48.798;15.066;2023-12-28T04:42:49;10.57;;;3.47;;
46266;SDS011;31998;48.798;15.066;2023-12-28T04:45:14;3.00;;;2.90;;
46266;SDS011;31998;48.798;15.066;2023-12-28T04:47:39;5.93;;;3.77;;
46266;SDS011;31998;48.798;15.066;2023-12-28T04:50:05;4.53;;;3.27;;
46266;SDS011;31998;48.798;15.066;2023-12-28T04:52:31;4.50;;;3.80;;
46266;SDS011;31998;48.798;15.066;2023-12-28T04:54:56;3.93;;;3.33;;
46266;SDS011;31998;48.798;15.066;2023-12-28T04:57:21;4.67;;;4.27;;
46266;SDS011;31998;48.798;15.066;2023-12-28T04:59:49;4.27;;;3.93;;
46266;SDS011;31998;48.798;15.066;2023-12-28T05:02:14;4.37;;;4.07;;
46266;SDS011;31998;48.798;15.066;2023-12-28T05:04:39;6.13;;;4.50;;
46266;SDS011;31998;48.798;15.066;2023-12-28T05:07:05;7.50;;;4.07;;
46266;SDS011;31998;48.798;15.066;2023-12-28T05:09:30;5.10;;;4.60;;
46266;SDS011;31998;48.798;15.066;2023-12-28T05:11:56;3.70;;;3.47;;
46266;SDS011;31998;48.798;15.066;2023-12-28T05:14:21;3.13;;;3.00;;
46266;SDS011;31998;48.798;15.066;2023-12-28T05:16:46;4.10;;;2.93;;
46266;SDS011;31998;48.798;15.066;2023-12-28T05:19:11;4.63;;;3.53;;
46266;SDS011;31998;48.798;15.066;2023-12-28T05:21:37;5.50;;;3.10;;
46266;SDS011;31998;48.798;15.066;2023-12-28T05:24:02;2.73;;;2.53;;
46266;SDS011;31998;48.798;15.066;2023-12-28T05:26:27;8.33;;;3.40;;
46266;SDS011;31998;48.798;15.066;2023-12-28T05:28:53;2.27;;;2.17;;
46266;SDS011;31998;48.798;15.066;2023-12-28T05:31:18;3.33;;;3.03;;
46266;SDS011;31998;48.798;15.066;2023-12-28T05:33:43;2.77;;;2.67;;
46266;SDS011;31998;48.798;15.066;2023-12-28T05:36:08;3.33;;;3.03;;
46266;SDS011;31998;48.798;15.066;2023-12-28T05:38:34;2.93;;;2.77;;
46266;SDS011;31998;48.798;15.066;2023-12-28T05:40:59;3.20;;;2.97;;
46266;SDS011;31998;48.798;15.066;2023-12-28T05:43:24;2.83;;;2.63;;
46266;SDS011;31998;48.798;15.066;2023-12-28T05:45:49;3.83;;;3.30;;
46266;SDS011;31998;48.798;15.066;2023-12-28T05:48:15;5.43;;;2.40;;
46266;SDS011;31998;48.798;15.066;2023-12-28T05:50:40;2.70;;;2.50;;
46266;SDS011;31998;48.798;15.066;2023-12-28T05:53:05;2.33;;;2.23;;
46266;SDS011;31998;48.798;15.066;2023-12-28T05:55:30;3.30;;;3.07;;
46266;SDS011;31998;48.798;15.066;2023-12-28T05:57:55;3.03;;;2.70;;
46266;SDS011;31998;48.798;15.066;2023-12-28T06:00:21;2.90;;;2.80;;
46266;SDS011;31998;48.798;15.066;2023-12-28T06:02:46;4.93;;;2.93;;
46266;SDS011;31998;48.798;15.066;2023-12-28T06:05:14;11.50;;;2.97;;
46266;SDS011;31998;48.798;15.066;2023-12-28T06:07:40;3.27;;;2.93;;
46266;SDS011;31998;48.798;15.066;2023-12-28T06:10:06;4.80;;;3.50;;
46266;SDS011;31998;48.798;15.066;2023-12-28T06:12:31;3.00;;;2.70;;
46266;SDS011;31998;48.798;15.066;2023-12-28T06:14:56;3.10;;;2.50;;
46266;SDS011;31998;48.798;15.066;2023-12-28T06:17:22;6.33;;;3.30;;
46266;SDS011;31998;48.798;15.066;2023-12-28T06:19:47;5.33;;;3.53;;
46266;SDS011;31998;48.798;15.066;2023-12-28T06:22:12;3.10;;;2.80;;
46266;SDS011;31998;48.798;15.066;2023-12-28T06:24:38;5.13;;;3.90;;
46266;SDS011;31998;48.798;15.066;2023-12-28T06:27:04;3.23;;;3.03;;
46266;SDS011;31998;48.798;15.066;2023-12-28T06:29:29;3.60;;;3.40;;
46266;SDS011;31998;48.798;15.066;2023-12-28T06:31:54;8.67;;;3.90;;
46266;SDS011;31998;48.798;15.066;2023-12-28T06:34:20;3.50;;;3.20;;
46266;SDS011;31998;48.798;15.066;2023-12-28T06:36:45;4.53;;;4.10;;
46266;SDS011;31998;48.798;15.066;2023-12-28T06:39:10;4.80;;;4.37;;
46266;SDS011;31998;48.798;15.066;2023-12-28T06:41:35;4.60;;;3.97;;
46266;SDS011;31998;48.798;15.066;2023-12-28T06:44:00;4.37;;;4.07;;
46266;SDS011;31998;48.798;15.066;2023-12-28T06:46:26;3.50;;;3.30;;
46266;SDS011;31998;48.798;15.066;2023-12-28T06:48:51;3.70;;;3.40;;
46266;SDS011;31998;48.798;15.066;2023-12-28T06:51:17;5.87;;;3.50;;
46266;SDS011;31998;48.798;15.066;2023-12-28T06:53:43;4.77;;;2.77;;
46266;SDS011;31998;48.798;15.066;2023-12-28T06:56:09;4.00;;;3.10;;
46266;SDS011;31998;48.798;15.066;2023-12-28T06:58:34;4.10;;;3.67;;
46266;SDS011;31998;48.798;15.066;2023-12-28T07:00:59;7.37;;;6.87;;
46266;SDS011;31998;48.798;15.066;2023-12-28T07:03:27;8.07;;;7.37;;
46266;SDS011;31998;48.798;15.066;2023-12-28T07:05:55;12.27;;;9.30;;
46266;SDS011;31998;48.798;15.066;2023-12-28T07:08:20;14.97;;;10.30;;
46266;SDS011;31998;48.798;15.066;2023-12-28T07:10:45;20.63;;;10.10;;
46266;SDS011;31998;48.798;15.066;2023-12-28T07:13:10;26.20;;;14.10;;
46266;SDS011;31998;48.798;15.066;2023-12-28T07:15:36;15.13;;;9.40;;
46266;SDS011;31998;48.798;15.066;2023-12-28T07:18:01;14.87;;;9.57;;
46266;SDS011;31998;48.798;15.066;2023-12-28T07:20:26;15.07;;;9.07;;
46266;SDS011;31998;48.798;15.066;2023-12-28T07:22:51;18.10;;;8.70;;
46266;SDS011;31998;48.798;15.066;2023-12-28T07:25:16;14.90;;;8.60;;
46266;SDS011;31998;48.798;15.066;2023-12-28T07:27:42;16.60;;;10.77;;
46266;SDS011;31998;48.798;15.066;2023-12-28T07:30:07;16.20;;;10.00;;
46266;SDS011;31998;48.798;15.066;2023-12-28T07:32:33;10.93;;;7.67;;
46266;SDS011;31998;48.798;15.066;2023-12-28T07:34:58;11.93;;;7.57;;
46266;SDS011;31998;48.798;15.066;2023-12-28T07:37:24;9.80;;;7.23;;
46266;SDS011;31998;48.798;15.066;2023-12-28T07:39:49;7.87;;;7.07;;
46266;SDS011;31998;48.798;15.066;2023-12-28T07:42:14;10.73;;;7.23;;
46266;SDS011;31998;48.798;15.066;2023-12-28T07:44:40;16.03;;;8.00;;
46266;SDS011;31998;48.798;15.066;2023-12-28T07:47:05;9.60;;;7.10;;
46266;SDS011;31998;48.798;15.066;2023-12-28T07:49:31;18.90;;;7.90;;
46266;SDS011;31998;48.798;15.066;2023-12-28T07:51:56;18.23;;;10.20;;
46266;SDS011;31998;48.798;15.066;2023-12-28T07:54:21;13.43;;;7.57;;
46266;SDS011;31998;48.798;15.066;2023-12-28T07:56:47;3.23;;;1.63;;
46266;SDS011;31998;48.798;15.066;2023-12-28T07:59:12;2.60;;;2.40;;
46266;SDS011;31998;48.798;15.066;2023-12-28T08:01:37;2.33;;;2.13;;
46266;SDS011;31998;48.798;15.066;2023-12-28T08:04:02;2.10;;;2.00;;
46266;SDS011;31998;48.798;15.066;2023-12-28T08:06:28;3.27;;;2.97;;
46266;SDS011;31998;48.798;15.066;2023-12-28T08:08:56;2.00;;;1.90;;
46266;SDS011;31998;48.798;15.066;2023-12-28T08:11:21;3.20;;;2.20;;
46266;SDS011;31998;48.798;15.066;2023-12-28T08:13:46;5.47;;;4.97;;
46266;SDS011;31998;48.798;15.066;2023-12-28T08:16:11;7.00;;;4.00;;
46266;SDS011;31998;48.798;15.066;2023-12-28T08:18:37;2.53;;;2.43;;
46266;SDS011;31998;48.798;15.066;2023-12-28T08:21:02;2.70;;;2.20;;
46266;SDS011;31998;48.798;15.066;2023-12-28T08:23:27;1.73;;;1.63;;
46266;SDS011;31998;48.798;15.066;2023-12-28T08:25:52;1.90;;;1.63;;
46266;SDS011;31998;48.798;15.066;2023-12-28T08:28:18;1.03;;;1.03;;
46266;SDS011;31998;48.798;15.066;2023-12-28T08:30:43;1.80;;;1.70;;
46266;SDS011;31998;48.798;15.066;2023-12-28T08:33:08;1.00;;;1.00;;
46266;SDS011;31998;48.798;15.066;2023-12-28T08:35:33;1.83;;;1.73;;
46266;SDS011;31998;48.798;15.066;2023-12-28T08:37:59;1.43;;;1.33;;
46266;SDS011;31998;48.798;15.066;2023-12-28T08:40:24;1.37;;;1.13;;
46266;SDS011;31998;48.798;15.066;2023-12-28T08:42:49;3.70;;;3.33;;
46266;SDS011;31998;48.798;15.066;2023-12-28T08:45:14;3.40;;;3.20;;
46266;SDS011;31998;48.798;15.066;2023-12-28T08:47:40;4.70;;;2.57;;
46266;SDS011;31998;48.798;15.066;2023-12-28T08:50:05;2.37;;;2.27;;
46266;SDS011;31998;48.798;15.066;2023-12-28T08:52:30;2.17;;;2.07;;
46266;SDS011;31998;48.798;15.066;2023-12-28T08:54:56;1.47;;;1.40;;
46266;SDS011;31998;48.798;15.066;2023-12-28T08:57:21;6.50;;;1.73;;
46266;SDS011;31998;48.798;15.066;2023-12-28T08:59:46;1.60;;;1.50;;
46266;SDS011;31998;48.798;15.066;2023-12-28T09:02:11;3.60;;;3.23;;
46266;SDS011;31998;48.798;15.066;2023-12-28T09:04:36;2.03;;;1.93;;
46266;SDS011;31998;48.798;15.066;2023-12-28T09:07:03;2.10;;;1.90;;
46266;SDS011;31998;48.798;15.066;2023-12-28T09:09:29;2.77;;;2.57;;
46266;SDS011;31998;48.798;15.066;2023-12-28T09:11:54;2.33;;;2.23;;
46266;SDS011;31998;48.798;15.066;2023-12-28T09:14:19;2.07;;;1.97;;
46266;SDS011;31998;48.798;15.066;2023-12-28T09:16:45;2.97;;;2.77;;
46266;SDS011;31998;48.798;15.066;2023-12-28T09:19:11;5.20;;;2.03;;
46266;SDS011;31998;48.798;15.066;2023-12-28T09:21:36;3.13;;;2.20;;
46266;SDS011;31998;48.798;15.066;2023-12-28T09:24:01;3.57;;;2.60;;
46266;SDS011;31998;48.798;15.066;2023-12-28T09:26:27;3.30;;;3.00;;
46266;SDS011;31998;48.798;15.066;2023-12-28T09:28:52;1.63;;;1.53;;
46266;SDS011;31998;48.798;15.066;2023-12-28T09:31:19;1.67;;;1.57;;
46266;SDS011;31998;48.798;15.066;2023-12-28T09:33:45;1.43;;;1.40;;
46266;SDS011;31998;48.798;15.066;2023-12-28T09:36:10;4.90;;;1.27;;
46266;SDS011;31998;48.798;15.066;2023-12-28T09:38:38;2.60;;;2.50;;
46266;SDS011;31998;48.798;15.066;2023-12-28T09:41:11;2.90;;;2.27;;
46266;SDS011;31998;48.798;15.066;2023-12-28T09:43:38;1.10;;;1.10;;
46266;SDS011;31998;48.798;15.066;2023-12-28T09:46:06;1.70;;;1.60;;
46266;SDS011;31998;48.798;15.066;2023-12-28T09:48:32;0.90;;;0.90;;
46266;SDS011;31998;48.798;15.066;2023-12-28T09:50:58;3.93;;;1.90;;
46266;SDS011;31998;48.798;15.066;2023-12-28T09:53:23;5.73;;;1.90;;
46266;SDS011;31998;48.798;15.066;2023-12-28T09:55:48;1.37;;;1.37;;
46266;SDS011;31998;48.798;15.066;2023-12-28T09:58:14;4.73;;;1.53;;
46266;SDS011;31998;48.798;15.066;2023-12-28T10:00:42;1.00;;;1.00;;
46266;SDS011;31998;48.798;15.066;2023-12-28T10:03:08;1.30;;;1.30;;
46266;SDS011;31998;48.798;15.066;2023-12-28T10:05:34;1.40;;;1.40;;
46266;SDS011;31998;48.798;15.066;2023-12-28T10:07:59;2.47;;;1.70;;
46266;SDS011;31998;48.798;15.066;2023-12-28T10:10:24;1.13;;;1.13;;
46266;SDS011;31998;48.798;15.066;2023-12-28T10:12:50;1.40;;;1.40;;
46266;SDS011;31998;48.798;15.066;2023-12-28T10:15:15;2.83;;;1.00;;
46266;SDS011;31998;48.798;15.066;2023-12-28T10:17:40;0.80;;;0.80;;
46266;SDS011;31998;48.798;15.066;2023-12-28T10:20:06;1.80;;;1.80;;
46266;SDS011;31998;48.798;15.066;2023-12-28T10:22:34;1.27;;;1.27;;
46266;SDS011;31998;48.798;15.066;2023-12-28T10:25:01;1.07;;;1.00;;
46266;SDS011;31998;48.798;15.066;2023-12-28T10:27:27;3.20;;;2.67;;
46266;SDS011;31998;48.798;15.066;2023-12-28T10:29:53;4.57;;;3.57;;
46266;SDS011;31998;48.798;15.066;2023-12-28T10:32:18;13.43;;;4.50;;
46266;SDS011;31998;48.798;15.066;2023-12-28T10:34:44;1.40;;;1.40;;
46266;SDS011;31998;48.798;15.066;2023-12-28T10:37:09;1.10;;;1.00;;
46266;SDS011;31998;48.798;15.066;2023-12-28T10:39:36;1.10;;;1.10;;
46266;SDS011;31998;48.798;15.066;2023-12-28T10:42:04;1.50;;;1.40;;
46266;SDS011;31998;48.798;15.066;2023-12-28T10:44:34;1.13;;;1.00;;
46266;SDS011;31998;48.798;15.066;2023-12-28T10:47:01;7.83;;;6.00;;
46266;SDS011;31998;48.798;15.066;2023-12-28T10:49:26;1.43;;;1.33;;
46266;SDS011;31998;48.798;15.066;2023-12-28T10:51:52;0.77;;;0.73;;
46266;SDS011;31998;48.798;15.066;2023-12-28T10:56:48;1.00;;;1.00;;
46266;SDS011;31998;48.798;15.066;2023-12-28T10:59:28;1.20;;;1.20;;
46266;SDS011;31998;48.798;15.066;2023-12-28T11:01:56;1.30;;;1.27;;
46266;SDS011;31998;48.798;15.066;2023-12-28T11:04:23;3.90;;;1.00;;
46266;SDS011;31998;48.798;15.066;2023-12-28T11:06:49;1.00;;;1.00;;
46266;SDS011;31998;48.798;15.066;2023-12-28T11:09:15;1.40;;;1.23;;
46266;SDS011;31998;48.798;15.066;2023-12-28T11:11:41;2.40;;;1.10;;
46266;SDS011;31998;48.798;15.066;2023-12-28T11:14:06;0.90;;;0.90;;
46266;SDS011;31998;48.798;15.066;2023-12-28T11:16:32;0.90;;;0.90;;
46266;SDS011;31998;48.798;15.066;2023-12-28T11:18:58;1.00;;;0.90;;
46266;SDS011;31998;48.798;15.066;2023-12-28T11:21:24;0.80;;;0.80;;
46266;SDS011;31998;48.798;15.066;2023-12-28T11:23:50;1.53;;;1.27;;
46266;SDS011;31998;48.798;15.066;2023-12-28T11:26:19;3.00;;;2.80;;
46266;SDS011;31998;48.798;15.066;2023-12-28T11:28:45;3.43;;;3.13;;
46266;SDS011;31998;48.798;15.066;2023-12-28T11:31:10;10.60;;;5.10;;
46266;SDS011;31998;48.798;15.066;2023-12-28T11:33:45;10.43;;;6.40;;
46266;SDS011;31998;48.798;15.066;2023-12-28T11:36:11;0.90;;;0.90;;
46266;SDS011;31998;48.798;15.066;2023-12-28T11:38:36;4.00;;;0.90;;
46266;SDS011;31998;48.798;15.066;2023-12-28T11:41:03;1.10;;;1.07;;
46266;SDS011;31998;48.798;15.066;2023-12-28T11:43:29;0.93;;;0.93;;
46266;SDS011;31998;48.798;15.066;2023-12-28T11:45:58;0.77;;;0.70;;
46266;SDS011;31998;48.798;15.066;2023-12-28T11:48:24;0.83;;;0.80;;
46266;SDS011;31998;48.798;15.066;2023-12-28T11:50:51;0.93;;;0.93;;
46266;SDS011;31998;48.798;15.066;2023-12-28T11:53:17;1.37;;;1.27;;
46266;SDS011;31998;48.798;15.066;2023-12-28T11:55:43;0.50;;;0.50;;
46266;SDS011;31998;48.798;15.066;2023-12-28T11:58:08;2.30;;;1.10;;
46266;SDS011;31998;48.798;15.066;2023-12-28T12:00:34;1.13;;;1.13;;
46266;SDS011;31998;48.798;15.066;2023-12-28T12:02:59;1.00;;;0.87;;
46266;SDS011;31998;48.798;15.066;2023-12-28T12:05:24;0.80;;;0.80;;
46266;SDS011;31998;48.798;15.066;2023-12-28T12:07:49;0.80;;;0.80;;
46266;SDS011;31998;48.798;15.066;2023-12-28T12:10:15;0.97;;;0.97;;
46266;SDS011;31998;48.798;15.066;2023-12-28T12:12:40;0.87;;;0.87;;
46266;SDS011;31998;48.798;15.066;2023-12-28T12:15:07;2.10;;;2.00;;
46266;SDS011;31998;48.798;15.066;2023-12-28T12:17:32;2.03;;;1.93;;
46266;SDS011;31998;48.798;15.066;2023-12-28T12:19:58;2.67;;;2.47;;
46266;SDS011;31998;48.798;15.066;2023-12-28T12:22:23;5.77;;;4.47;;
46266;SDS011;31998;48.798;15.066;2023-12-28T12:24:49;6.37;;;3.57;;
46266;SDS011;31998;48.798;15.066;2023-12-28T12:27:16;1.20;;;1.20;;
46266;SDS011;31998;48.798;15.066;2023-12-28T12:29:42;4.13;;;0.80;;
46266;SDS011;31998;48.798;15.066;2023-12-28T12:32:07;1.50;;;0.93;;
46266;SDS011;31998;48.798;15.066;2023-12-28T12:34:32;0.90;;;0.90;;
46266;SDS011;31998;48.798;15.066;2023-12-28T12:36:58;1.43;;;1.03;;
46266;SDS011;31998;48.798;15.066;2023-12-28T12:39:23;1.23;;;1.20;;
46266;SDS011;31998;48.798;15.066;2023-12-28T12:41:49;1.23;;;1.23;;
46266;SDS011;31998;48.798;15.066;2023-12-28T12:44:14;1.10;;;0.87;;
46266;SDS011;31998;48.798;15.066;2023-12-28T12:46:41;2.87;;;1.00;;
46266;SDS011;31998;48.798;15.066;2023-12-28T12:49:07;3.73;;;3.40;;
46266;SDS011;31998;48.798;15.066;2023-12-28T12:51:32;1.80;;;1.70;;
46266;SDS011;31998;48.798;15.066;2023-12-28T12:53:58;1.30;;;1.20;;
46266;SDS011;31998;48.798;15.066;2023-12-28T12:56:24;1.10;;;1.00;;
46266;SDS011;31998;48.798;15.066;2023-12-28T12:58:49;3.13;;;0.90;;
46266;SDS011;31998;48.798;15.066;2023-12-28T13:01:14;2.90;;;1.80;;
46266;SDS011;31998;48.798;15.066;2023-12-28T13:03:40;1.10;;;1.10;;
46266;SDS011;31998;48.798;15.066;2023-12-28T13:06:05;0.93;;;0.93;;
46266;SDS011;31998;48.798;15.066;2023-12-28T13:08:30;2.13;;;0.90;;
46266;SDS011;31998;48.798;15.066;2023-12-28T13:10:55;1.10;;;1.00;;
46266;SDS011;31998;48.798;15.066;2023-12-28T13:13:21;10.93;;;1.00;;
46266;SDS011;31998;48.798;15.066;2023-12-28T13:15:46;1.80;;;1.07;;
46266;SDS011;31998;48.798;15.066;2023-12-28T13:18:11;1.97;;;0.63;;
46266;SDS011;31998;48.798;15.066;2023-12-28T13:20:37;1.00;;;1.00;;
46266;SDS011;31998;48.798;15.066;2023-12-28T13:23:02;1.97;;;0.57;;
46266;SDS011;31998;48.798;15.066;2023-12-28T13:25:27;1.20;;;0.70;;
46266;SDS011;31998;48.798;15.066;2023-12-28T13:27:53;1.10;;;1.10;;
46266;SDS011;31998;48.798;15.066;2023-12-28T13:30:18;1.23;;;1.23;;
46266;SDS011;31998;48.798;15.066;2023-12-28T13:32:44;1.57;;;1.47;;
46266;SDS011;31998;48.798;15.066;2023-12-28T13:35:09;2.70;;;0.83;;
46266;SDS011;31998;48.798;15.066;2023-12-28T13:37:34;2.23;;;0.63;;
46266;SDS011;31998;48.798;15.066;2023-12-28T13:39:59;2.67;;;0.90;;
46266;SDS011;31998;48.798;15.066;2023-12-28T13:42:24;1.30;;;1.30;;
46266;SDS011;31998;48.798;15.066;2023-12-28T13:44:50;4.97;;;2.97;;
46266;SDS011;31998;48.798;15.066;2023-12-28T13:47:15;2.10;;;1.20;;
46266;SDS011;31998;48.798;15.066;2023-12-28T13:49:40;1.43;;;1.33;;
46266;SDS011;31998;48.798;15.066;2023-12-28T13:52:05;10.00;;;5.50;;
46266;SDS011;31998;48.798;15.066;2023-12-28T13:54:31;10.03;;;6.30;;
46266;SDS011;31998;48.798;15.066;2023-12-28T13:56:56;3.53;;;3.10;;
46266;SDS011;31998;48.798;15.066;2023-12-28T13:59:23;8.37;;;3.77;;
46266;SDS011;31998;48.798;15.066;2023-12-28T14:01:49;22.83;;;9.50;;
46266;SDS011;31998;48.798;15.066;2023-12-28T14:04:14;23.47;;;11.70;;
46266;SDS011;31998;48.798;15.066;2023-12-28T14:06:39;11.00;;;5.97;;
46266;SDS011;31998;48.798;15.066;2023-12-28T14:09:04;18.87;;;11.73;;
46266;SDS011;31998;48.798;15.066;2023-12-28T14:11:30;55.57;;;31.67;;
46266;SDS011;31998;48.798;15.066;2023-12-28T14:13:55;51.93;;;31.20;;
46266;SDS011;31998;48.798;15.066;2023-12-28T14:16:21;8.73;;;6.10;;
46266;SDS011;31998;48.798;15.066;2023-12-28T14:18:46;8.50;;;6.83;;
46266;SDS011;31998;48.798;15.066;2023-12-28T14:21:13;5.47;;;4.10;;
46266;SDS011;31998;48.798;15.066;2023-12-28T14:23:39;4.40;;;4.00;;
46266;SDS011;31998;48.798;15.066;2023-12-28T14:26:07;6.53;;;4.53;;